createdAt,value
2023-02-11T00:00:39.165Z,1025.06
2023-02-11T00:01:39.134Z,1025.07
2023-02-11T00:02:39.121Z,1025.03
2023-02-11T00:03:39.187Z,1025.01
2023-02-11T00:04:39.098Z,1025.01
2023-02-11T00:05:39.121Z,1025.15
2023-02-11T00:06:39.083Z,1025.04
2023-02-11T00:07:39.066Z,1025.07
2023-02-11T00:08:39.058Z,1025.09
2023-02-11T00:09:39.043Z,1025.12
2023-02-11T00:10:39.046Z,1025.13
2023-02-11T00:11:39.020Z,1025.24
2023-02-11T00:12:39.007Z,1025.24
2023-02-11T00:13:39.004Z,1025.33
2023-02-11T00:14:39.012Z,1025.33
2023-02-11T00:15:39.003Z,1025.43
2023-02-11T00:16:39.129Z,1025.34
2023-02-11T00:17:38.960Z,1025.35
2023-02-11T00:18:38.943Z,1025.38
2023-02-11T00:19:38.960Z,1025.33
2023-02-11T00:20:38.920Z,1025.37
2023-02-11T00:21:38.915Z,1025.40
2023-02-11T00:22:38.901Z,1025.31
2023-02-11T00:23:38.890Z,1025.27
2023-02-11T00:24:38.900Z,1025.12
2023-02-11T00:25:38.906Z,1025.12
2023-02-11T00:26:38.855Z,1025.13
2023-02-11T00:27:38.856Z,1025.03
2023-02-11T00:28:38.840Z,1025.01
2023-02-11T00:29:38.854Z,1024.93
2023-02-11T00:30:38.976Z,1024.99
2023-02-11T00:31:39.000Z,1024.89
2023-02-11T00:32:38.812Z,1024.88
2023-02-11T00:33:38.787Z,1024.95
2023-02-11T00:34:38.789Z,1024.92
2023-02-11T00:35:38.822Z,1024.92
2023-02-11T00:36:38.751Z,1025.01
2023-02-11T00:37:38.736Z,1024.97
2023-02-11T00:38:38.740Z,1024.99
2023-02-11T00:39:38.724Z,1025.11
2023-02-11T00:40:38.724Z,1024.99
2023-02-11T00:41:38.699Z,1025.03
2023-02-11T00:42:38.688Z,1024.92
2023-02-11T00:43:38.672Z,1024.93
2023-02-11T00:44:38.680Z,1024.99
2023-02-11T00:45:38.651Z,1024.97
2023-02-11T00:46:38.682Z,1025.01
2023-02-11T00:47:38.646Z,1025.01
2023-02-11T00:48:38.644Z,1024.97
2023-02-11T00:49:38.637Z,1024.99
2023-02-11T00:50:38.597Z,1025.02
2023-02-11T00:51:38.585Z,1025.00
2023-02-11T00:52:38.581Z,1024.97
2023-02-11T00:53:38.572Z,1024.99
2023-02-11T00:54:38.567Z,1025.00
2023-02-11T00:55:38.542Z,1025.06
2023-02-11T00:56:38.525Z,1025.11
2023-02-11T00:57:38.522Z,1025.00
2023-02-11T00:58:38.526Z,1024.97
2023-02-11T00:59:38.517Z,1024.92
2023-02-11T01:00:38.486Z,1024.87
2023-02-11T01:01:38.530Z,1024.79
2023-02-11T01:02:38.465Z,1024.63
2023-02-11T01:03:38.462Z,1024.55
2023-02-11T01:04:38.488Z,1024.52
2023-02-11T01:05:38.550Z,1024.50
2023-02-11T01:06:38.423Z,1024.46
2023-02-11T01:07:38.412Z,1024.49
2023-02-11T01:08:38.415Z,1024.45
2023-02-11T01:09:38.422Z,1024.39
2023-02-11T01:10:38.383Z,1024.34
2023-02-11T01:11:38.377Z,1024.30
2023-02-11T01:12:38.370Z,1024.28
2023-02-11T01:13:38.352Z,1024.28
2023-02-11T01:14:38.368Z,1024.25
2023-02-11T01:15:38.406Z,1024.21
2023-02-11T01:16:38.308Z,1024.20
2023-02-11T01:17:38.302Z,1024.23
2023-02-11T01:18:38.312Z,1024.22
2023-02-11T01:19:38.316Z,1024.20
2023-02-11T01:20:38.292Z,1024.23
2023-02-11T01:21:38.262Z,1024.24
2023-02-11T01:22:38.249Z,1024.26
2023-02-11T01:23:38.248Z,1024.20
2023-02-11T01:24:38.260Z,1024.26
2023-02-11T01:25:38.221Z,1024.18
2023-02-11T01:26:38.208Z,1024.29
2023-02-11T01:27:38.196Z,1024.19
2023-02-11T01:28:38.231Z,1024.22
2023-02-11T01:29:38.203Z,1024.16
2023-02-11T01:30:38.193Z,1024.13
2023-02-11T01:31:38.269Z,1024.21
2023-02-11T01:32:38.138Z,1024.22
2023-02-11T01:33:38.140Z,1024.23
2023-02-11T01:34:38.124Z,1024.19
2023-02-11T01:35:38.140Z,1024.17
2023-02-11T01:36:38.137Z,1024.19
2023-02-11T01:37:38.091Z,1024.19
2023-02-11T01:38:38.092Z,1024.15
2023-02-11T01:39:38.067Z,1024.06
2023-02-11T01:40:38.081Z,1024.04
2023-02-11T01:41:38.054Z,1024.06
2023-02-11T01:42:38.035Z,1024.08
2023-02-11T01:43:38.054Z,1024.02
2023-02-11T01:44:38.027Z,1024.05
2023-02-11T01:45:38.007Z,1024.14
2023-02-11T01:46:38.048Z,1024.09
2023-02-11T01:47:37.992Z,1024.12
2023-02-11T01:48:37.999Z,1024.12
2023-02-11T01:49:38.061Z,1024.08
2023-02-11T01:50:37.951Z,1024.10
2023-02-11T01:51:37.961Z,1024.11
2023-02-11T01:52:37.957Z,1024.01
2023-02-11T01:53:37.961Z,1024.03
2023-02-11T01:54:37.910Z,1024.00
2023-02-11T01:55:37.898Z,1024.02
2023-02-11T01:56:37.923Z,1024.03
2023-02-11T01:57:37.874Z,1023.91
2023-02-11T01:58:37.866Z,1023.89
2023-02-11T01:59:37.852Z,1023.91
2023-02-11T02:00:37.836Z,1023.83
2023-02-11T02:01:37.886Z,1023.83
2023-02-11T02:02:37.824Z,1023.88
2023-02-11T02:03:37.893Z,1023.95
2023-02-11T02:04:37.807Z,1023.95
2023-02-11T02:05:37.795Z,1024.02
2023-02-11T02:06:37.804Z,1024.08
2023-02-11T02:07:37.769Z,1024.13
2023-02-11T02:08:37.775Z,1024.12
2023-02-11T02:09:37.767Z,1024.11
2023-02-11T02:10:37.734Z,1024.05
2023-02-11T02:11:37.733Z,1024.04
2023-02-11T02:12:37.733Z,1024.08
2023-02-11T02:13:37.696Z,1024.05
2023-02-11T02:14:37.728Z,1024.10
2023-02-11T02:15:37.678Z,1024.07
2023-02-11T02:16:37.800Z,1024.09
2023-02-11T02:17:37.674Z,1023.96
2023-02-11T02:18:37.648Z,1023.99
2023-02-11T02:19:37.631Z,1023.89
2023-02-11T02:20:37.625Z,1023.91
2023-02-11T02:21:37.615Z,1023.99
2023-02-11T02:22:37.631Z,1023.91
2023-02-11T02:23:37.609Z,1023.91
2023-02-11T02:24:37.603Z,1023.90
2023-02-11T02:25:37.570Z,1023.78
2023-02-11T02:26:37.569Z,1023.87
2023-02-11T02:27:37.579Z,1023.77
2023-02-11T02:28:37.567Z,1023.83
2023-02-11T02:29:37.529Z,1023.73
2023-02-11T02:30:37.575Z,1023.75
2023-02-11T02:31:37.549Z,1023.74
2023-02-11T02:32:37.518Z,1023.75
2023-02-11T02:33:37.482Z,1023.75
2023-02-11T02:34:37.470Z,1023.71
2023-02-11T02:35:37.503Z,1023.76
2023-02-11T02:36:37.456Z,1023.75
2023-02-11T02:37:37.474Z,1023.74
2023-02-11T02:38:37.431Z,1023.68
2023-02-11T02:39:37.441Z,1023.62
2023-02-11T02:40:37.467Z,1023.61
2023-02-11T02:41:37.391Z,1023.58
2023-02-11T02:42:37.412Z,1023.67
2023-02-11T02:43:37.371Z,1023.62
2023-02-11T02:44:37.362Z,1023.67
2023-02-11T02:45:37.364Z,1023.75
2023-02-11T02:46:37.403Z,1023.77
2023-02-11T02:47:37.353Z,1023.72
2023-02-11T02:48:37.357Z,1023.78
2023-02-11T02:49:37.308Z,1023.72
2023-02-11T02:50:37.330Z,1023.75
2023-02-11T02:51:37.302Z,1023.74
2023-02-11T02:52:37.305Z,1023.72
2023-02-11T02:53:37.281Z,1023.73
2023-02-11T02:54:37.260Z,1023.58
2023-02-11T02:55:37.286Z,1023.55
2023-02-11T02:56:37.356Z,1023.57
2023-02-11T02:57:37.227Z,1023.56
2023-02-11T02:58:37.220Z,1023.56
2023-02-11T02:59:37.206Z,1023.62
2023-02-11T03:00:37.247Z,1023.55
2023-02-11T03:01:37.187Z,1023.59
2023-02-11T03:02:37.185Z,1023.54
2023-02-11T03:03:37.197Z,1023.53
2023-02-11T03:04:37.152Z,1023.53
2023-02-11T03:05:37.165Z,1023.48
2023-02-11T03:06:37.134Z,1023.47
2023-02-11T03:07:37.117Z,1023.43
2023-02-11T03:08:37.109Z,1023.43
2023-02-11T03:09:37.097Z,1023.38
2023-02-11T03:10:37.125Z,1023.39
2023-02-11T03:11:37.076Z,1023.38
2023-02-11T03:12:37.089Z,1023.34
2023-02-11T03:13:37.052Z,1023.39
2023-02-11T03:14:37.049Z,1023.41
2023-02-11T03:15:37.049Z,1023.32
2023-02-11T03:16:37.092Z,1023.33
2023-02-11T03:17:37.013Z,1023.35
2023-02-11T03:18:37.001Z,1023.33
2023-02-11T03:19:36.985Z,1023.28
2023-02-11T03:20:37.031Z,1023.27
2023-02-11T03:21:36.959Z,1023.34
2023-02-11T03:22:36.982Z,1023.38
2023-02-11T03:23:36.945Z,1023.37
2023-02-11T03:24:36.953Z,1023.39
2023-02-11T03:25:36.952Z,1023.37
2023-02-11T03:26:36.916Z,1023.28
2023-02-11T03:27:36.910Z,1023.26
2023-02-11T03:28:36.974Z,1023.27
2023-02-11T03:29:36.878Z,1023.24
2023-02-11T03:30:36.870Z,1023.26
2023-02-11T03:31:37.041Z,1023.24
2023-02-11T03:32:36.854Z,1023.25
2023-02-11T03:33:36.854Z,1023.24
2023-02-11T03:34:36.832Z,1023.30
2023-02-11T03:35:36.836Z,1023.28
2023-02-11T03:36:36.802Z,1023.20
2023-02-11T03:37:36.789Z,1023.29
2023-02-11T03:38:36.782Z,1023.30
2023-02-11T03:39:36.791Z,1023.25
2023-02-11T03:40:36.763Z,1023.25
2023-02-11T03:41:36.744Z,1023.26
2023-02-11T03:42:36.740Z,1023.30
2023-02-11T03:43:36.724Z,1023.34
2023-02-11T03:44:36.760Z,1023.37
2023-02-11T03:45:36.746Z,1023.34
2023-02-11T03:46:36.693Z,1023.34
2023-02-11T03:47:36.678Z,1023.34
2023-02-11T03:48:36.670Z,1023.34
2023-02-11T03:49:36.681Z,1023.40
2023-02-11T03:50:36.651Z,1023.36
2023-02-11T03:51:36.633Z,1023.34
2023-02-11T03:52:36.634Z,1023.35
2023-02-11T03:53:36.617Z,1023.27
2023-02-11T03:54:36.631Z,1023.30
2023-02-11T03:55:36.596Z,1023.26
2023-02-11T03:56:36.586Z,1023.18
2023-02-11T03:57:36.580Z,1023.24
2023-02-11T03:58:36.556Z,1023.21
2023-02-11T03:59:36.575Z,1023.24
2023-02-11T04:00:36.571Z,1023.31
2023-02-11T04:01:36.537Z,1023.24
2023-02-11T04:02:36.525Z,1023.26
2023-02-11T04:03:36.609Z,1023.25
2023-02-11T04:04:36.489Z,1023.28
2023-02-11T04:05:36.503Z,1023.36
2023-02-11T04:06:36.467Z,1023.24
2023-02-11T04:07:36.456Z,1023.23
2023-02-11T04:08:36.451Z,1023.33
2023-02-11T04:09:36.447Z,1023.36
2023-02-11T04:10:36.457Z,1023.35
2023-02-11T04:11:36.407Z,1023.31
2023-02-11T04:12:36.402Z,1023.30
2023-02-11T04:13:36.398Z,1023.38
2023-02-11T04:14:36.390Z,1023.40
2023-02-11T04:15:36.386Z,1023.34
2023-02-11T04:16:36.497Z,1023.36
2023-02-11T04:17:36.373Z,1023.41
2023-02-11T04:18:36.358Z,1023.35
2023-02-11T04:19:36.326Z,1023.33
2023-02-11T04:20:36.324Z,1023.37
2023-02-11T04:21:36.312Z,1023.37
2023-02-11T04:22:36.316Z,1023.30
2023-02-11T04:23:36.280Z,1023.35
2023-02-11T04:24:36.286Z,1023.29
2023-02-11T04:25:36.259Z,1023.29
2023-02-11T04:26:36.274Z,1023.34
2023-02-11T04:27:36.260Z,1023.41
2023-02-11T04:28:36.343Z,1023.25
2023-02-11T04:29:36.209Z,1023.28
2023-02-11T04:30:36.206Z,1023.36
2023-02-11T04:31:36.298Z,1023.26
2023-02-11T04:32:36.233Z,1023.28
2023-02-11T04:33:36.167Z,1023.33
2023-02-11T04:34:36.160Z,1023.30
2023-02-11T04:35:36.155Z,1023.29
2023-02-11T04:36:36.173Z,1023.24
2023-02-11T04:37:36.125Z,1023.22
2023-02-11T04:38:36.118Z,1023.18
2023-02-11T04:39:36.101Z,1023.14
2023-02-11T04:40:36.094Z,1023.19
2023-02-11T04:41:36.078Z,1023.13
2023-02-11T04:42:36.101Z,1023.13
2023-02-11T04:43:36.061Z,1023.06
2023-02-11T04:44:36.077Z,1023.08
2023-02-11T04:45:36.180Z,1023.05
2023-02-11T04:46:36.023Z,1023.13
2023-02-11T04:47:36.041Z,1023.14
2023-02-11T04:48:36.023Z,1023.04
2023-02-11T04:49:35.990Z,1023.09
2023-02-11T04:50:35.996Z,1023.01
2023-02-11T04:51:35.968Z,1022.97
2023-02-11T04:52:35.994Z,1022.93
2023-02-11T04:53:35.961Z,1022.86
2023-02-11T04:54:35.940Z,1022.94
2023-02-11T04:55:35.936Z,1022.83
2023-02-11T04:56:35.923Z,1022.90
2023-02-11T04:57:35.923Z,1022.87
2023-02-11T04:58:35.892Z,1022.89
2023-02-11T04:59:35.891Z,1022.87
2023-02-11T05:00:35.906Z,1022.86
2023-02-11T05:01:35.890Z,1022.81
2023-02-11T05:02:35.892Z,1022.83
2023-02-11T05:03:35.853Z,1022.81
2023-02-11T05:04:35.857Z,1022.80
2023-02-11T05:05:35.818Z,1022.82
2023-02-11T05:06:35.813Z,1022.75
2023-02-11T05:07:35.818Z,1022.74
2023-02-11T05:08:35.788Z,1022.74
2023-02-11T05:09:35.773Z,1022.72
2023-02-11T05:10:35.766Z,1022.72
2023-02-11T05:11:35.758Z,1022.66
2023-02-11T05:12:35.790Z,1022.65
2023-02-11T05:13:35.734Z,1022.72
2023-02-11T05:14:35.727Z,1022.66
2023-02-11T05:15:35.745Z,1022.64
2023-02-11T05:16:35.822Z,1022.66
2023-02-11T05:17:35.716Z,1022.59
2023-02-11T05:18:35.683Z,1022.57
2023-02-11T05:19:35.666Z,1022.57
2023-02-11T05:20:35.675Z,1022.45
2023-02-11T05:21:35.646Z,1022.45
2023-02-11T05:22:35.661Z,1022.52
2023-02-11T05:23:35.629Z,1022.45
2023-02-11T05:24:35.613Z,1022.41
2023-02-11T05:25:35.601Z,1022.37
2023-02-11T05:26:35.615Z,1022.36
2023-02-11T05:27:35.625Z,1022.38
2023-02-11T05:28:35.684Z,1022.40
2023-02-11T05:29:35.557Z,1022.42
2023-02-11T05:30:35.629Z,1022.45
2023-02-11T05:31:35.549Z,1022.41
2023-02-11T05:32:35.528Z,1022.45
2023-02-11T05:33:35.541Z,1022.38
2023-02-11T05:34:35.543Z,1022.36
2023-02-11T05:35:35.527Z,1022.42
2023-02-11T05:36:35.516Z,1022.33
2023-02-11T05:37:35.566Z,1022.39
2023-02-11T05:38:35.466Z,1022.36
2023-02-11T05:39:35.478Z,1022.36
2023-02-11T05:40:35.446Z,1022.28
2023-02-11T05:41:35.430Z,1022.23
2023-02-11T05:42:35.417Z,1022.23
2023-02-11T05:43:35.449Z,1022.14
2023-02-11T05:44:35.424Z,1022.21
2023-02-11T05:45:35.387Z,1022.19
2023-02-11T05:46:35.467Z,1022.14
2023-02-11T05:47:35.401Z,1022.17
2023-02-11T05:48:35.358Z,1022.13
2023-02-11T05:49:35.351Z,1022.29
2023-02-11T05:50:35.352Z,1022.32
2023-02-11T05:51:35.328Z,1022.29
2023-02-11T05:52:35.368Z,1022.31
2023-02-11T05:53:35.312Z,1022.40
2023-02-11T05:54:35.294Z,1022.39
2023-02-11T05:55:35.311Z,1022.37
2023-02-11T05:56:35.276Z,1022.35
2023-02-11T05:57:35.259Z,1022.44
2023-02-11T05:58:35.255Z,1022.37
2023-02-11T05:59:35.240Z,1022.43
2023-02-11T06:00:35.269Z,1022.29
2023-02-11T06:01:35.223Z,1022.36
2023-02-11T06:02:35.249Z,1022.39
2023-02-11T06:03:35.212Z,1022.47
2023-02-11T06:04:35.216Z,1022.49
2023-02-11T06:05:35.207Z,1022.49
2023-02-11T06:06:35.165Z,1022.48
2023-02-11T06:07:35.161Z,1022.53
2023-02-11T06:08:37.025Z,1022.53
2023-02-11T06:09:35.160Z,1022.51
2023-02-11T06:10:35.143Z,1022.49
2023-02-11T06:11:35.110Z,1022.47
2023-02-11T06:12:35.110Z,1022.37
2023-02-11T06:13:35.088Z,1022.45
2023-02-11T06:14:35.106Z,1022.35
2023-02-11T06:15:35.104Z,1022.29
2023-02-11T06:16:35.058Z,1022.36
2023-02-11T06:17:35.049Z,1022.35
2023-02-11T06:18:35.043Z,1022.33
2023-02-11T06:19:35.025Z,1022.26
2023-02-11T06:20:35.061Z,1022.28
2023-02-11T06:21:43.550Z,1022.31
2023-02-11T06:22:36.002Z,1022.33
2023-02-11T06:23:34.995Z,1022.32
2023-02-11T06:24:58.552Z,1022.27
2023-02-11T06:25:35.988Z,1022.23
2023-02-11T06:26:34.966Z,1022.33
2023-02-11T06:27:34.946Z,1022.24
2023-02-11T06:28:34.974Z,1022.23
2023-02-11T06:29:34.936Z,1022.27
2023-02-11T06:30:34.928Z,1022.23
2023-02-11T06:31:35.041Z,1022.22
2023-02-11T06:32:43.865Z,1022.12
2023-02-11T06:33:35.890Z,1022.17
2023-02-11T06:34:34.865Z,1022.16
2023-02-11T06:35:34.885Z,1022.06
2023-02-11T06:36:34.854Z,1022.02
2023-02-11T06:37:34.869Z,1022.03
2023-02-11T06:38:34.834Z,1022.07
2023-02-11T06:39:34.820Z,1022.09
2023-02-11T06:40:34.825Z,1022.01
2023-02-11T06:41:34.808Z,1022.08
2023-02-11T06:42:34.804Z,1022.05
2023-02-11T06:43:34.775Z,1022.10
2023-02-11T06:44:34.758Z,1022.04
2023-02-11T06:45:34.749Z,1022.05
2023-02-11T06:46:34.799Z,1022.04
2023-02-11T06:47:34.772Z,1022.04
2023-02-11T06:48:34.726Z,1022.09
2023-02-11T06:49:34.735Z,1022.07
2023-02-11T06:50:34.711Z,1022.13
2023-02-11T06:51:34.696Z,1022.11
2023-02-11T06:52:34.696Z,1022.08
2023-02-11T06:53:34.671Z,1022.12
2023-02-11T06:54:34.655Z,1022.17
2023-02-11T06:55:34.645Z,1022.17
2023-02-11T06:56:34.677Z,1022.17
2023-02-11T06:57:34.639Z,1022.15
2023-02-11T06:58:34.613Z,1022.18
2023-02-11T06:59:34.602Z,1022.18
2023-02-11T07:00:34.612Z,1022.09
2023-02-11T07:01:34.650Z,1022.13
2023-02-11T07:02:34.716Z,1022.12
2023-02-11T07:03:34.564Z,1022.18
2023-02-11T07:04:34.548Z,1022.19
2023-02-11T07:05:34.533Z,1022.07
2023-02-11T07:06:34.552Z,1022.07
2023-02-11T07:07:34.552Z,1022.07
2023-02-11T07:08:34.509Z,1022.04
2023-02-11T07:09:34.492Z,1021.98
2023-02-11T07:10:34.485Z,1022.02
2023-02-11T07:11:34.520Z,1022.01
2023-02-11T07:12:34.487Z,1021.99
2023-02-11T07:13:34.454Z,1022.06
2023-02-11T07:14:34.443Z,1022.08
2023-02-11T07:15:34.434Z,1022.04
2023-02-11T07:16:34.521Z,1022.04
2023-02-11T07:17:34.407Z,1022.04
2023-02-11T07:18:34.440Z,1021.88
2023-02-11T07:19:34.391Z,1021.93
2023-02-11T07:20:34.387Z,1021.89
2023-02-11T07:21:34.401Z,1021.85
2023-02-11T07:22:34.356Z,1021.92
2023-02-11T07:23:34.348Z,1021.96
2023-02-11T07:24:34.338Z,1021.89
2023-02-11T07:25:34.334Z,1021.90
2023-02-11T07:26:34.336Z,1021.87
2023-02-11T07:27:34.305Z,1021.86
2023-02-11T07:28:34.431Z,1021.89
2023-02-11T07:29:34.279Z,1021.75
2023-02-11T07:30:34.270Z,1021.83
2023-02-11T07:31:34.394Z,1021.90
2023-02-11T07:32:34.253Z,1021.89
2023-02-11T07:33:34.237Z,1021.82
2023-02-11T07:34:34.316Z,1021.88
2023-02-11T07:35:34.217Z,1021.88
2023-02-11T07:36:34.251Z,1021.84
2023-02-11T07:37:34.196Z,1021.83
2023-02-11T07:38:34.236Z,1021.86
2023-02-11T07:39:34.184Z,1021.79
2023-02-11T07:40:34.168Z,1021.77
2023-02-11T07:41:37.360Z,1021.83
2023-02-11T07:42:34.161Z,1021.89
2023-02-11T07:43:34.144Z,1021.90
2023-02-11T07:44:34.147Z,1021.84
2023-02-11T07:45:34.115Z,1021.85
2023-02-11T07:46:34.148Z,1021.87
2023-02-11T07:47:34.125Z,1021.91
2023-02-11T07:48:34.111Z,1021.90
2023-02-11T07:49:34.064Z,1021.88
2023-02-11T07:50:34.049Z,1021.86
2023-02-11T07:51:34.051Z,1021.91
2023-02-11T07:52:34.035Z,1021.96
2023-02-11T07:53:34.031Z,1021.90
2023-02-11T07:54:34.032Z,1022.05
2023-02-11T07:55:34.042Z,1021.99
2023-02-11T07:56:34.003Z,1021.94
2023-02-11T07:57:33.984Z,1022.01
2023-02-11T07:58:33.964Z,1022.03
2023-02-11T07:59:33.984Z,1021.99
2023-02-11T08:00:34.029Z,1021.89
2023-02-11T08:01:33.967Z,1021.94
2023-02-11T08:02:33.986Z,1021.88
2023-02-11T08:03:33.976Z,1021.95
2023-02-11T08:04:33.904Z,1021.99
2023-02-11T08:05:33.894Z,1022.03
2023-02-11T08:06:33.908Z,1022.07
2023-02-11T08:07:33.871Z,1022.11
2023-02-11T08:08:33.901Z,1022.14
2023-02-11T08:09:34.644Z,1022.17
2023-02-11T08:10:33.837Z,1022.14
2023-02-11T08:11:33.835Z,1022.24
2023-02-11T08:12:33.818Z,1022.26
2023-02-11T08:13:33.832Z,1022.28
2023-02-11T08:14:33.800Z,1022.31
2023-02-11T08:15:33.781Z,1022.33
2023-02-11T08:16:34.007Z,1022.40
2023-02-11T08:17:33.769Z,1022.46
2023-02-11T08:18:33.770Z,1022.46
2023-02-11T08:19:35.242Z,1022.34
2023-02-11T08:20:33.725Z,1022.34
2023-02-11T08:21:33.715Z,1022.39
2023-02-11T08:22:33.703Z,1022.36
2023-02-11T08:23:33.699Z,1022.34
2023-02-11T08:24:33.702Z,1022.32
2023-02-11T08:25:33.703Z,1022.31
2023-02-11T08:26:33.661Z,1022.24
2023-02-11T08:27:33.653Z,1022.30
2023-02-11T08:28:33.668Z,1022.31
2023-02-11T08:29:33.637Z,1022.36
2023-02-11T08:30:33.641Z,1022.34
2023-02-11T08:31:33.761Z,1022.43
2023-02-11T08:32:33.611Z,1022.39
2023-02-11T08:33:33.584Z,1022.43
2023-02-11T08:34:33.602Z,1022.50
2023-02-11T08:35:33.564Z,1022.48
2023-02-11T08:36:33.552Z,1022.45
2023-02-11T08:37:33.540Z,1022.52
2023-02-11T08:38:33.525Z,1022.65
2023-02-11T08:39:33.517Z,1022.58
2023-02-11T08:40:33.523Z,1022.58
2023-02-11T08:41:33.526Z,1022.62
2023-02-11T08:42:33.483Z,1022.58
2023-02-11T08:43:33.532Z,1022.64
2023-02-11T08:44:33.457Z,1022.68
2023-02-11T08:45:33.501Z,1022.61
2023-02-11T08:46:33.554Z,1022.52
2023-02-11T08:47:33.437Z,1022.47
2023-02-11T08:48:33.438Z,1022.38
2023-02-11T08:49:33.404Z,1022.32
2023-02-11T08:50:33.452Z,1022.33
2023-02-11T08:51:33.416Z,1022.30
2023-02-11T08:52:33.367Z,1022.16
2023-02-11T08:53:33.364Z,1022.25
2023-02-11T08:54:33.344Z,1022.22
2023-02-11T08:55:33.343Z,1022.11
2023-02-11T08:56:33.357Z,1022.20
2023-02-11T08:57:33.325Z,1022.13
2023-02-11T08:58:33.307Z,1022.13
2023-02-11T08:59:33.321Z,1022.17
2023-02-11T09:00:33.284Z,1022.22
2023-02-11T09:01:33.389Z,1022.09
2023-02-11T09:02:33.280Z,1022.14
2023-02-11T09:03:33.258Z,1022.11
2023-02-11T09:04:33.323Z,1022.11
2023-02-11T09:05:33.228Z,1022.11
2023-02-11T09:06:33.246Z,1022.16
2023-02-11T09:07:33.212Z,1022.17
2023-02-11T09:08:33.191Z,1022.18
2023-02-11T09:09:33.193Z,1022.29
2023-02-11T09:10:33.182Z,1022.25
2023-02-11T09:11:33.195Z,1022.33
2023-02-11T09:12:33.173Z,1022.35
2023-02-11T09:13:33.141Z,1022.42
2023-02-11T09:14:33.126Z,1022.48
2023-02-11T09:15:33.125Z,1022.42
2023-02-11T09:16:33.132Z,1022.33
2023-02-11T09:17:33.118Z,1022.36
2023-02-11T09:18:33.086Z,1022.40
2023-02-11T09:19:33.079Z,1022.35
2023-02-11T09:20:33.090Z,1022.43
2023-02-11T09:21:33.080Z,1022.48
2023-02-11T09:22:33.045Z,1022.54
2023-02-11T09:23:33.032Z,1022.54
2023-02-11T09:24:33.025Z,1022.62
2023-02-11T09:25:33.021Z,1022.70
2023-02-11T09:26:33.023Z,1022.55
2023-02-11T09:27:33.019Z,1022.51
2023-02-11T09:28:33.005Z,1022.39
2023-02-11T09:29:32.976Z,1022.40
2023-02-11T09:30:33.040Z,1022.48
2023-02-11T09:31:33.046Z,1022.51
2023-02-11T09:32:32.954Z,1022.53
2023-02-11T09:33:32.923Z,1022.59
2023-02-11T09:34:32.915Z,1022.58
2023-02-11T09:35:32.906Z,1022.69
2023-02-11T09:36:32.909Z,1022.63
2023-02-11T09:37:34.621Z,1022.69
2023-02-11T09:38:32.868Z,1022.61
2023-02-11T09:39:32.861Z,1022.64
2023-02-11T09:40:32.851Z,1022.65
2023-02-11T09:41:32.867Z,1022.62
2023-02-11T09:42:32.838Z,1022.67
2023-02-11T09:43:32.818Z,1022.58
2023-02-11T09:44:32.825Z,1022.62
2023-02-11T09:45:32.795Z,1022.59
2023-02-11T09:46:32.862Z,1022.64
2023-02-11T09:47:32.803Z,1022.76
2023-02-11T09:48:32.762Z,1022.73
2023-02-11T09:49:32.782Z,1022.81
2023-02-11T09:50:32.750Z,1022.74
2023-02-11T09:51:32.757Z,1022.80
2023-02-11T09:52:32.743Z,1022.85
2023-02-11T09:53:32.722Z,1022.87
2023-02-11T09:54:32.736Z,1022.87
2023-02-11T09:55:32.689Z,1022.76
2023-02-11T09:56:32.700Z,1022.85
2023-02-11T09:57:32.671Z,1022.88
2023-02-11T09:58:32.654Z,1022.89
2023-02-11T09:59:32.646Z,1022.87
2023-02-11T10:00:32.657Z,1022.92
2023-02-11T10:01:32.701Z,1022.90
2023-02-11T10:02:32.627Z,1022.91
2023-02-11T10:03:32.601Z,1022.86
2023-02-11T10:04:32.631Z,1022.76
2023-02-11T10:05:32.583Z,1022.87
2023-02-11T10:06:32.615Z,1022.86
2023-02-11T10:07:32.574Z,1022.89
2023-02-11T10:08:32.603Z,1022.86
2023-02-11T10:09:32.538Z,1022.80
2023-02-11T10:10:32.517Z,1022.84
2023-02-11T10:11:32.705Z,1022.85
2023-02-11T10:12:33.301Z,1022.86
2023-02-11T10:13:32.512Z,1022.84
2023-02-11T10:14:32.483Z,1022.95
2023-02-11T10:15:32.502Z,1022.88
2023-02-11T10:16:32.486Z,1022.89
2023-02-11T10:17:32.453Z,1022.84
2023-02-11T10:18:32.445Z,1022.84
2023-02-11T10:19:32.434Z,1022.87
2023-02-11T10:20:32.424Z,1022.88
2023-02-11T10:21:32.428Z,1022.84
2023-02-11T10:22:32.403Z,1022.84
2023-02-11T10:23:32.390Z,1022.83
2023-02-11T10:24:32.427Z,1022.81
2023-02-11T10:25:32.364Z,1022.83
2023-02-11T10:26:32.376Z,1022.85
2023-02-11T10:27:32.361Z,1022.92
2023-02-11T10:28:32.394Z,1022.92
2023-02-11T10:29:32.323Z,1023.01
2023-02-11T10:30:32.460Z,1022.97
2023-02-11T10:31:32.413Z,1022.95
2023-02-11T10:32:32.291Z,1022.95
2023-02-11T10:33:32.278Z,1022.92
2023-02-11T10:34:32.267Z,1022.94
2023-02-11T10:35:32.260Z,1022.85
2023-02-11T10:36:32.253Z,1022.93
2023-02-11T10:37:32.269Z,1022.90
2023-02-11T10:38:32.225Z,1022.82
2023-02-11T10:39:32.216Z,1022.80
2023-02-11T10:40:32.224Z,1022.83
2023-02-11T10:41:32.208Z,1022.73
2023-02-11T10:42:32.211Z,1022.72
2023-02-11T10:43:32.168Z,1022.63
2023-02-11T10:44:32.161Z,1022.67
2023-02-11T10:45:32.151Z,1022.66
2023-02-11T10:46:32.262Z,1022.68
2023-02-11T10:47:32.152Z,1022.60
2023-02-11T10:48:32.122Z,1022.58
2023-02-11T10:49:32.114Z,1022.62
2023-02-11T10:50:32.095Z,1022.65
2023-02-11T10:51:32.107Z,1022.60
2023-02-11T10:52:32.074Z,1022.68
2023-02-11T10:53:32.074Z,1022.69
2023-02-11T10:54:32.056Z,1022.70
2023-02-11T10:55:32.037Z,1022.71
2023-02-11T10:56:32.083Z,1022.65
2023-02-11T10:57:32.051Z,1022.72
2023-02-11T10:58:32.026Z,1022.65
2023-02-11T10:59:32.026Z,1022.65
2023-02-11T11:00:31.988Z,1022.56
2023-02-11T11:01:32.011Z,1022.50
2023-02-11T11:02:32.190Z,1022.48
2023-02-11T11:03:31.958Z,1022.49
2023-02-11T11:04:32.026Z,1022.57
2023-02-11T11:05:31.928Z,1022.57
2023-02-11T11:06:31.925Z,1022.57
2023-02-11T11:07:31.926Z,1022.59
2023-02-11T11:08:31.935Z,1022.60
2023-02-11T11:09:31.889Z,1022.63
2023-02-11T11:10:31.881Z,1022.71
2023-02-11T11:11:31.859Z,1022.60
2023-02-11T11:12:31.917Z,1022.68
2023-02-11T11:13:31.843Z,1022.77
2023-02-11T11:14:31.838Z,1022.75
2023-02-11T11:15:31.825Z,1022.69
2023-02-11T11:16:31.840Z,1022.68
2023-02-11T11:17:31.823Z,1022.67
2023-02-11T11:18:31.848Z,1022.62
2023-02-11T11:19:31.778Z,1022.62
2023-02-11T11:20:31.812Z,1022.56
2023-02-11T11:21:31.789Z,1022.55
2023-02-11T11:22:31.749Z,1022.44
2023-02-11T11:23:31.742Z,1022.45
2023-02-11T11:24:31.731Z,1022.36
2023-02-11T11:25:31.711Z,1022.33
2023-02-11T11:26:31.725Z,1022.35
2023-02-11T11:27:31.687Z,1022.40
2023-02-11T11:28:31.814Z,1022.42
2023-02-11T11:29:31.669Z,1022.40
2023-02-11T11:30:31.705Z,1022.41
2023-02-11T11:31:31.830Z,1022.54
2023-02-11T11:32:31.640Z,1022.50
2023-02-11T11:33:31.650Z,1022.53
2023-02-11T11:34:31.621Z,1022.46
2023-02-11T11:35:31.604Z,1022.50
2023-02-11T11:36:31.625Z,1022.57
2023-02-11T11:37:31.579Z,1022.60
2023-02-11T11:38:31.596Z,1022.57
2023-02-11T11:39:31.564Z,1022.56
2023-02-11T11:40:31.557Z,1022.53
2023-02-11T11:41:31.545Z,1022.47
2023-02-11T11:42:31.550Z,1022.44
2023-02-11T11:43:31.513Z,1022.40
2023-02-11T11:44:31.551Z,1022.34
2023-02-11T11:45:31.504Z,1022.45
2023-02-11T11:46:31.565Z,1022.44
2023-02-11T11:47:31.466Z,1022.55
2023-02-11T11:48:31.525Z,1022.41
2023-02-11T11:49:31.450Z,1022.42
2023-02-11T11:50:31.479Z,1022.35
2023-02-11T11:51:31.440Z,1022.44
2023-02-11T11:52:31.411Z,1022.51
2023-02-11T11:53:31.403Z,1022.45
2023-02-11T11:54:31.384Z,1022.52
2023-02-11T11:55:31.385Z,1022.61
2023-02-11T11:56:31.402Z,1022.62
2023-02-11T11:57:31.386Z,1022.52
2023-02-11T11:58:31.352Z,1022.64
2023-02-11T11:59:31.359Z,1022.55
2023-02-11T12:00:31.391Z,1022.51
2023-02-11T12:01:31.469Z,1022.51
2023-02-11T12:02:31.311Z,1022.50
2023-02-11T12:03:31.375Z,1022.46
2023-02-11T12:04:31.285Z,1022.47
2023-02-11T12:05:32.314Z,1022.46